sensor_id;sensor_type;location;lat;lon;timestamp;temperature;humidity
63966;DHT22;50151;52.030;5.350;2023-06-26T00:00:31;23.30;99.90
63966;DHT22;50151;52.030;5.350;2023-06-26T00:02:59;23.40;99.90
63966;DHT22;50151;52.030;5.350;2023-06-26T00:05:26;23.30;99.90
63966;DHT22;50151;52.030;5.350;2023-06-26T00:07:54;23.30;99.90
63966;DHT22;50151;52.030;5.350;2023-06-26T00:10:21;23.30;99.90
63966;DHT22;50151;52.030;5.350;2023-06-26T00:12:48;23.30;99.90
63966;DHT22;50151;52.030;5.350;2023-06-26T00:15:14;23.30;99.90
63966;DHT22;50151;52.030;5.350;2023-06-26T00:17:41;23.30;99.90
63966;DHT22;50151;52.030;5.350;2023-06-26T00:20:08;23.20;99.90
63966;DHT22;50151;52.030;5.350;2023-06-26T00:22:35;23.20;99.90
63966;DHT22;50151;52.030;5.350;2023-06-26T00:25:02;23.20;99.90
63966;DHT22;50151;52.030;5.350;2023-06-26T00:27:29;23.00;99.90
63966;DHT22;50151;52.030;5.350;2023-06-26T00:29:56;23.00;99.90
63966;DHT22;50151;52.030;5.350;2023-06-26T00:32:22;23.00;99.90
63966;DHT22;50151;52.030;5.350;2023-06-26T00:34:49;23.00;99.90
63966;DHT22;50151;52.030;5.350;2023-06-26T00:37:16;23.00;99.90
63966;DHT22;50151;52.030;5.350;2023-06-26T00:39:42;23.00;99.90
63966;DHT22;50151;52.030;5.350;2023-06-26T00:42:09;23.00;99.90
63966;DHT22;50151;52.030;5.350;2023-06-26T00:44:36;23.00;99.90
63966;DHT22;50151;52.030;5.350;2023-06-26T00:47:03;23.00;99.90
63966;DHT22;50151;52.030;5.350;2023-06-26T00:49:30;22.90;99.90
63966;DHT22;50151;52.030;5.350;2023-06-26T00:51:57;22.90;99.90
63966;DHT22;50151;52.030;5.350;2023-06-26T00:54:24;22.80;99.90
63966;DHT22;50151;52.030;5.350;2023-06-26T00:56:51;22.80;99.90
63966;DHT22;50151;52.030;5.350;2023-06-26T00:59:17;22.80;99.90
63966;DHT22;50151;52.030;5.350;2023-06-26T01:01:44;22.80;99.90
63966;DHT22;50151;52.030;5.350;2023-06-26T01:04:11;22.80;99.90
63966;DHT22;50151;52.030;5.350;2023-06-26T01:06:46;22.80;99.90
63966;DHT22;50151;52.030;5.350;2023-06-26T01:09:18;22.80;99.90
63966;DHT22;50151;52.030;5.350;2023-06-26T01:11:46;22.80;99.90
63966;DHT22;50151;52.030;5.350;2023-06-26T01:14:13;22.90;99.90
63966;DHT22;50151;52.030;5.350;2023-06-26T01:16:41;23.00;99.90
63966;DHT22;50151;52.030;5.350;2023-06-26T01:19:20;23.00;99.90
63966;DHT22;50151;52.030;5.350;2023-06-26T01:22:00;23.00;99.90
63966;DHT22;50151;52.030;5.350;2023-06-26T01:24:33;23.00;99.90
63966;DHT22;50151;52.030;5.350;2023-06-26T01:27:03;23.10;99.90
63966;DHT22;50151;52.030;5.350;2023-06-26T01:29:32;23.00;99.90
63966;DHT22;50151;52.030;5.350;2023-06-26T01:32:00;22.80;99.90
63966;DHT22;50151;52.030;5.350;2023-06-26T01:34:27;22.80;99.90
63966;DHT22;50151;52.030;5.350;2023-06-26T01:36:55;22.80;99.90
63966;DHT22;50151;52.030;5.350;2023-06-26T01:39:22;22.70;99.90
63966;DHT22;50151;52.030;5.350;2023-06-26T01:41:49;22.80;99.90
63966;DHT22;50151;52.030;5.350;2023-06-26T01:44:28;22.50;99.90
63966;DHT22;50151;52.030;5.350;2023-06-26T01:47:05;22.50;99.90
63966;DHT22;50151;52.030;5.350;2023-06-26T01:49:47;22.50;99.90
63966;DHT22;50151;52.030;5.350;2023-06-26T01:52:29;22.40;99.90
63966;DHT22;50151;52.030;5.350;2023-06-26T01:55:03;22.30;99.90
63966;DHT22;50151;52.030;5.350;2023-06-26T01:57:32;22.40;99.90
63966;DHT22;50151;52.030;5.350;2023-06-26T02:00:02;22.30;99.90
63966;DHT22;50151;52.030;5.350;2023-06-26T02:02:29;22.40;99.90
63966;DHT22;50151;52.030;5.350;2023-06-26T02:04:56;22.20;99.90
63966;DHT22;50151;52.030;5.350;2023-06-26T02:07:23;22.20;99.90
63966;DHT22;50151;52.030;5.350;2023-06-26T02:09:50;22.20;99.90
63966;DHT22;50151;52.030;5.350;2023-06-26T02:12:16;22.10;99.90
63966;DHT22;50151;52.030;5.350;2023-06-26T02:14:43;22.00;99.90
63966;DHT22;50151;52.030;5.350;2023-06-26T02:17:10;22.00;99.90
63966;DHT22;50151;52.030;5.350;2023-06-26T02:19:36;22.00;99.90
63966;DHT22;50151;52.030;5.350;2023-06-26T02:22:03;22.00;99.90
63966;DHT22;50151;52.030;5.350;2023-06-26T02:24:30;22.00;99.90
63966;DHT22;50151;52.030;5.350;2023-06-26T02:26:57;21.90;99.90
63966;DHT22;50151;52.030;5.350;2023-06-26T02:29:24;21.90;99.90
63966;DHT22;50151;52.030;5.350;2023-06-26T02:31:50;21.90;99.90
63966;DHT22;50151;52.030;5.350;2023-06-26T02:34:17;21.80;99.90
63966;DHT22;50151;52.030;5.350;2023-06-26T02:36:44;21.80;99.90
63966;DHT22;50151;52.030;5.350;2023-06-26T02:39:10;21.80;99.90
63966;DHT22;50151;52.030;5.350;2023-06-26T02:41:37;21.90;99.90
63966;DHT22;50151;52.030;5.350;2023-06-26T02:44:04;21.70;99.90
63966;DHT22;50151;52.030;5.350;2023-06-26T02:46:31;21.60;99.90
63966;DHT22;50151;52.030;5.350;2023-06-26T02:48:59;21.70;99.90
63966;DHT22;50151;52.030;5.350;2023-06-26T02:51:25;21.60;99.90
63966;DHT22;50151;52.030;5.350;2023-06-26T02:53:52;21.70;99.90
63966;DHT22;50151;52.030;5.350;2023-06-26T02:56:19;21.60;99.90
63966;DHT22;50151;52.030;5.350;2023-06-26T02:58:45;21.50;99.90
63966;DHT22;50151;52.030;5.350;2023-06-26T03:01:12;21.60;99.90
63966;DHT22;50151;52.030;5.350;2023-06-26T03:03:42;21.50;99.90
63966;DHT22;50151;52.030;5.350;2023-06-26T03:06:09;21.50;99.90
63966;DHT22;50151;52.030;5.350;2023-06-26T03:08:37;21.40;99.90
63966;DHT22;50151;52.030;5.350;2023-06-26T03:11:05;21.30;99.90
63966;DHT22;50151;52.030;5.350;2023-06-26T03:13:35;21.20;99.90
63966;DHT22;50151;52.030;5.350;2023-06-26T03:16:03;21.30;99.90
63966;DHT22;50151;52.030;5.350;2023-06-26T03:18:30;21.30;99.90
63966;DHT22;50151;52.030;5.350;2023-06-26T03:20:57;21.30;99.90
63966;DHT22;50151;52.030;5.350;2023-06-26T03:23:24;21.20;99.90
63966;DHT22;50151;52.030;5.350;2023-06-26T03:25:51;21.10;99.90
63966;DHT22;50151;52.030;5.350;2023-06-26T03:28:18;21.10;99.90
63966;DHT22;50151;52.030;5.350;2023-06-26T03:30:44;21.20;99.90
63966;DHT22;50151;52.030;5.350;2023-06-26T03:33:11;21.10;99.90
63966;DHT22;50151;52.030;5.350;2023-06-26T03:35:38;21.20;99.90
63966;DHT22;50151;52.030;5.350;2023-06-26T03:38:05;21.00;99.90
63966;DHT22;50151;52.030;5.350;2023-06-26T03:40:32;21.10;99.90
63966;DHT22;50151;52.030;5.350;2023-06-26T03:42:58;21.20;99.90
63966;DHT22;50151;52.030;5.350;2023-06-26T03:45:25;21.20;99.90
63966;DHT22;50151;52.030;5.350;2023-06-26T03:47:52;21.10;99.90
63966;DHT22;50151;52.030;5.350;2023-06-26T03:50:19;21.10;99.90
63966;DHT22;50151;52.030;5.350;2023-06-26T03:52:46;20.90;99.90
63966;DHT22;50151;52.030;5.350;2023-06-26T03:55:13;21.00;99.90
63966;DHT22;50151;52.030;5.350;2023-06-26T03:57:39;20.80;99.90
63966;DHT22;50151;52.030;5.350;2023-06-26T04:00:07;20.90;99.90
63966;DHT22;50151;52.030;5.350;2023-06-26T04:02:38;20.90;99.90
63966;DHT22;50151;52.030;5.350;2023-06-26T04:05:05;20.90;99.90
63966;DHT22;50151;52.030;5.350;2023-06-26T04:07:32;20.80;99.90
63966;DHT22;50151;52.030;5.350;2023-06-26T04:09:59;20.80;99.90
63966;DHT22;50151;52.030;5.350;2023-06-26T04:12:26;20.80;99.90
63966;DHT22;50151;52.030;5.350;2023-06-26T04:14:53;20.90;99.90
63966;DHT22;50151;52.030;5.350;2023-06-26T04:17:19;20.90;99.90
63966;DHT22;50151;52.030;5.350;2023-06-26T04:19:47;20.80;99.90
63966;DHT22;50151;52.030;5.350;2023-06-26T04:22:13;20.90;99.90
63966;DHT22;50151;52.030;5.350;2023-06-26T04:24:40;20.70;99.90
63966;DHT22;50151;52.030;5.350;2023-06-26T04:27:07;20.80;99.90
63966;DHT22;50151;52.030;5.350;2023-06-26T04:29:33;20.70;99.90
63966;DHT22;50151;52.030;5.350;2023-06-26T04:32:00;20.80;99.90
63966;DHT22;50151;52.030;5.350;2023-06-26T04:34:27;20.80;99.90
63966;DHT22;50151;52.030;5.350;2023-06-26T04:36:54;20.70;99.90
63966;DHT22;50151;52.030;5.350;2023-06-26T04:39:21;20.80;99.90
63966;DHT22;50151;52.030;5.350;2023-06-26T04:41:48;20.80;99.90
63966;DHT22;50151;52.030;5.350;2023-06-26T04:44:15;20.90;99.90
63966;DHT22;50151;52.030;5.350;2023-06-26T04:46:42;20.80;99.90
63966;DHT22;50151;52.030;5.350;2023-06-26T04:49:09;20.80;99.90
63966;DHT22;50151;52.030;5.350;2023-06-26T04:51:36;20.60;99.90
63966;DHT22;50151;52.030;5.350;2023-06-26T04:54:10;20.70;99.90
63966;DHT22;50151;52.030;5.350;2023-06-26T04:56:37;20.60;99.90
63966;DHT22;50151;52.030;5.350;2023-06-26T04:59:06;20.60;99.90
63966;DHT22;50151;52.030;5.350;2023-06-26T05:01:33;20.70;99.90
63966;DHT22;50151;52.030;5.350;2023-06-26T05:03:59;20.40;99.90
63966;DHT22;50151;52.030;5.350;2023-06-26T05:06:26;20.60;99.90
63966;DHT22;50151;52.030;5.350;2023-06-26T05:08:53;20.40;99.90
63966;DHT22;50151;52.030;5.350;2023-06-26T05:11:20;20.60;99.90
63966;DHT22;50151;52.030;5.350;2023-06-26T05:13:46;20.80;99.90
63966;DHT22;50151;52.030;5.350;2023-06-26T05:16:13;20.80;99.90
63966;DHT22;50151;52.030;5.350;2023-06-26T05:18:40;20.70;99.90
63966;DHT22;50151;52.030;5.350;2023-06-26T05:21:07;20.80;99.90
63966;DHT22;50151;52.030;5.350;2023-06-26T05:23:34;20.70;99.90
63966;DHT22;50151;52.030;5.350;2023-06-26T05:26:02;20.60;99.90
63966;DHT22;50151;52.030;5.350;2023-06-26T05:28:29;20.70;99.90
63966;DHT22;50151;52.030;5.350;2023-06-26T05:30:59;20.90;99.90
63966;DHT22;50151;52.030;5.350;2023-06-26T05:33:27;20.80;99.90
63966;DHT22;50151;52.030;5.350;2023-06-26T05:35:54;20.70;99.90
63966;DHT22;50151;52.030;5.350;2023-06-26T05:38:21;20.70;99.90
63966;DHT22;50151;52.030;5.350;2023-06-26T05:40:48;20.70;99.90
63966;DHT22;50151;52.030;5.350;2023-06-26T05:43:15;20.90;99.90
63966;DHT22;50151;52.030;5.350;2023-06-26T05:45:42;21.00;99.90
63966;DHT22;50151;52.030;5.350;2023-06-26T05:48:09;21.00;99.90
63966;DHT22;50151;52.030;5.350;2023-06-26T05:50:36;20.90;99.90
63966;DHT22;50151;52.030;5.350;2023-06-26T05:53:04;21.00;99.90
63966;DHT22;50151;52.030;5.350;2023-06-26T05:55:32;21.00;99.90
63966;DHT22;50151;52.030;5.350;2023-06-26T05:57:59;21.10;99.90
63966;DHT22;50151;52.030;5.350;2023-06-26T06:00:28;21.10;99.90
63966;DHT22;50151;52.030;5.350;2023-06-26T06:02:55;21.20;99.90
63966;DHT22;50151;52.030;5.350;2023-06-26T06:05:22;21.10;99.90
63966;DHT22;50151;52.030;5.350;2023-06-26T06:07:50;21.00;99.90
63966;DHT22;50151;52.030;5.350;2023-06-26T06:10:17;21.10;99.90
63966;DHT22;50151;52.030;5.350;2023-06-26T06:12:43;21.10;99.90
63966;DHT22;50151;52.030;5.350;2023-06-26T06:15:10;21.20;99.90
63966;DHT22;50151;52.030;5.350;2023-06-26T06:17:37;21.20;99.90
63966;DHT22;50151;52.030;5.350;2023-06-26T06:20:04;21.20;99.90
63966;DHT22;50151;52.030;5.350;2023-06-26T06:22:31;21.10;99.90
63966;DHT22;50151;52.030;5.350;2023-06-26T06:24:58;21.10;99.90
63966;DHT22;50151;52.030;5.350;2023-06-26T06:27:24;21.10;99.90
63966;DHT22;50151;52.030;5.350;2023-06-26T06:29:51;21.30;99.90
63966;DHT22;50151;52.030;5.350;2023-06-26T06:32:18;21.50;99.90
63966;DHT22;50151;52.030;5.350;2023-06-26T06:34:45;21.20;99.90
63966;DHT22;50151;52.030;5.350;2023-06-26T06:37:12;21.10;99.90
63966;DHT22;50151;52.030;5.350;2023-06-26T06:39:39;21.10;99.90
63966;DHT22;50151;52.030;5.350;2023-06-26T06:42:06;21.20;99.90
63966;DHT22;50151;52.030;5.350;2023-06-26T06:44:32;21.30;99.90
63966;DHT22;50151;52.030;5.350;2023-06-26T06:46:59;21.10;99.90
63966;DHT22;50151;52.030;5.350;2023-06-26T06:49:26;20.90;99.90
63966;DHT22;50151;52.030;5.350;2023-06-26T06:51:53;20.70;99.90
63966;DHT22;50151;52.030;5.350;2023-06-26T06:54:19;20.80;99.90
63966;DHT22;50151;52.030;5.350;2023-06-26T06:56:46;21.00;99.90
63966;DHT22;50151;52.030;5.350;2023-06-26T06:59:13;21.10;99.90
63966;DHT22;50151;52.030;5.350;2023-06-26T07:01:40;21.30;99.90
63966;DHT22;50151;52.030;5.350;2023-06-26T07:04:07;21.30;99.90
63966;DHT22;50151;52.030;5.350;2023-06-26T07:06:34;21.30;99.90
63966;DHT22;50151;52.030;5.350;2023-06-26T07:09:01;21.50;99.90
63966;DHT22;50151;52.030;5.350;2023-06-26T07:11:28;21.60;99.90
63966;DHT22;50151;52.030;5.350;2023-06-26T07:13:55;21.40;99.90
63966;DHT22;50151;52.030;5.350;2023-06-26T07:16:22;21.60;99.90
63966;DHT22;50151;52.030;5.350;2023-06-26T07:18:49;21.70;99.90
63966;DHT22;50151;52.030;5.350;2023-06-26T07:21:16;21.90;99.90
63966;DHT22;50151;52.030;5.350;2023-06-26T07:23:43;21.90;99.90
63966;DHT22;50151;52.030;5.350;2023-06-26T07:26:10;21.80;99.90
63966;DHT22;50151;52.030;5.350;2023-06-26T07:28:36;22.10;99.90
63966;DHT22;50151;52.030;5.350;2023-06-26T07:31:03;22.10;99.90
63966;DHT22;50151;52.030;5.350;2023-06-26T07:33:33;21.70;99.90
63966;DHT22;50151;52.030;5.350;2023-06-26T07:36:00;21.70;99.90
63966;DHT22;50151;52.030;5.350;2023-06-26T07:38:27;21.40;99.90
63966;DHT22;50151;52.030;5.350;2023-06-26T07:40:54;21.60;99.90
63966;DHT22;50151;52.030;5.350;2023-06-26T07:43:20;21.70;99.90
63966;DHT22;50151;52.030;5.350;2023-06-26T07:45:48;22.10;99.90
63966;DHT22;50151;52.030;5.350;2023-06-26T07:48:15;21.70;99.90
63966;DHT22;50151;52.030;5.350;2023-06-26T07:50:42;21.50;99.90
63966;DHT22;50151;52.030;5.350;2023-06-26T07:53:08;21.80;99.90
63966;DHT22;50151;52.030;5.350;2023-06-26T07:55:35;21.80;99.90
63966;DHT22;50151;52.030;5.350;2023-06-26T07:58:02;21.80;99.90
63966;DHT22;50151;52.030;5.350;2023-06-26T08:00:29;22.00;99.90
63966;DHT22;50151;52.030;5.350;2023-06-26T08:02:55;22.30;99.90
63966;DHT22;50151;52.030;5.350;2023-06-26T08:05:23;22.10;99.90
63966;DHT22;50151;52.030;5.350;2023-06-26T08:07:49;22.10;99.90
63966;DHT22;50151;52.030;5.350;2023-06-26T08:10:16;21.80;99.90
63966;DHT22;50151;52.030;5.350;2023-06-26T08:12:44;22.10;99.90
63966;DHT22;50151;52.030;5.350;2023-06-26T08:15:12;22.30;99.90
63966;DHT22;50151;52.030;5.350;2023-06-26T08:17:39;22.70;99.90
63966;DHT22;50151;52.030;5.350;2023-06-26T08:20:06;22.30;99.90
63966;DHT22;50151;52.030;5.350;2023-06-26T08:22:35;22.10;99.90
63966;DHT22;50151;52.030;5.350;2023-06-26T08:25:02;21.80;99.90
63966;DHT22;50151;52.030;5.350;2023-06-26T08:27:30;22.20;99.90
63966;DHT22;50151;52.030;5.350;2023-06-26T08:29:57;22.20;99.90
63966;DHT22;50151;52.030;5.350;2023-06-26T08:32:25;22.00;99.90
63966;DHT22;50151;52.030;5.350;2023-06-26T08:34:51;22.00;99.90
63966;DHT22;50151;52.030;5.350;2023-06-26T08:37:18;21.80;99.90
63966;DHT22;50151;52.030;5.350;2023-06-26T08:39:45;21.80;99.90
63966;DHT22;50151;52.030;5.350;2023-06-26T08:42:12;22.10;99.90
63966;DHT22;50151;52.030;5.350;2023-06-26T08:44:38;22.20;99.90
63966;DHT22;50151;52.030;5.350;2023-06-26T08:47:22;22.00;99.90
63966;DHT22;50151;52.030;5.350;2023-06-26T08:50:12;21.80;99.90
63966;DHT22;50151;52.030;5.350;2023-06-26T08:53:02;21.80;99.90
63966;DHT22;50151;52.030;5.350;2023-06-26T08:55:31;22.30;99.90
63966;DHT22;50151;52.030;5.350;2023-06-26T08:57:59;22.50;99.90
63966;DHT22;50151;52.030;5.350;2023-06-26T09:00:28;22.70;99.90
63966;DHT22;50151;52.030;5.350;2023-06-26T09:02:55;22.10;99.90
63966;DHT22;50151;52.030;5.350;2023-06-26T09:05:22;22.40;99.90
63966;DHT22;50151;52.030;5.350;2023-06-26T09:07:49;22.60;99.90
63966;DHT22;50151;52.030;5.350;2023-06-26T09:10:16;22.70;99.90
63966;DHT22;50151;52.030;5.350;2023-06-26T09:12:46;22.70;99.90
63966;DHT22;50151;52.030;5.350;2023-06-26T09:15:15;22.50;99.90
63966;DHT22;50151;52.030;5.350;2023-06-26T09:17:43;22.80;99.90
63966;DHT22;50151;52.030;5.350;2023-06-26T09:20:10;23.10;99.90
63966;DHT22;50151;52.030;5.350;2023-06-26T09:22:46;23.00;99.90
63966;DHT22;50151;52.030;5.350;2023-06-26T09:25:14;22.80;99.90
63966;DHT22;50151;52.030;5.350;2023-06-26T09:27:42;22.90;99.90
63966;DHT22;50151;52.030;5.350;2023-06-26T09:30:10;23.10;99.90
63966;DHT22;50151;52.030;5.350;2023-06-26T09:32:38;23.20;99.90
63966;DHT22;50151;52.030;5.350;2023-06-26T09:35:06;22.90;99.90
63966;DHT22;50151;52.030;5.350;2023-06-26T09:37:34;22.90;99.90
63966;DHT22;50151;52.030;5.350;2023-06-26T09:40:01;22.40;99.90
63966;DHT22;50151;52.030;5.350;2023-06-26T09:42:29;22.50;99.90
63966;DHT22;50151;52.030;5.350;2023-06-26T09:44:56;22.30;99.90
63966;DHT22;50151;52.030;5.350;2023-06-26T09:47:23;22.20;99.90
63966;DHT22;50151;52.030;5.350;2023-06-26T09:49:51;22.70;99.90
63966;DHT22;50151;52.030;5.350;2023-06-26T09:52:19;22.90;99.90
63966;DHT22;50151;52.030;5.350;2023-06-26T09:54:46;22.90;99.90
63966;DHT22;50151;52.030;5.350;2023-06-26T09:57:16;22.30;99.90
63966;DHT22;50151;52.030;5.350;2023-06-26T09:59:44;22.70;99.90
63966;DHT22;50151;52.030;5.350;2023-06-26T10:02:12;22.60;99.90
63966;DHT22;50151;52.030;5.350;2023-06-26T10:04:39;22.60;99.90
63966;DHT22;50151;52.030;5.350;2023-06-26T10:07:11;22.60;99.90
63966;DHT22;50151;52.030;5.350;2023-06-26T10:09:41;22.50;99.90
63966;DHT22;50151;52.030;5.350;2023-06-26T10:12:24;22.90;99.90
63966;DHT22;50151;52.030;5.350;2023-06-26T10:14:53;23.10;99.90
63966;DHT22;50151;52.030;5.350;2023-06-26T10:17:22;23.00;99.90
63966;DHT22;50151;52.030;5.350;2023-06-26T10:19:51;23.00;99.90
63966;DHT22;50151;52.030;5.350;2023-06-26T10:22:21;23.30;99.90
63966;DHT22;50151;52.030;5.350;2023-06-26T10:24:51;22.50;99.90
63966;DHT22;50151;52.030;5.350;2023-06-26T10:27:21;22.20;99.90
63966;DHT22;50151;52.030;5.350;2023-06-26T10:30:11;22.60;99.90
63966;DHT22;50151;52.030;5.350;2023-06-26T10:32:39;23.10;99.90
63966;DHT22;50151;52.030;5.350;2023-06-26T10:35:07;23.60;99.90
63966;DHT22;50151;52.030;5.350;2023-06-26T10:37:45;23.60;99.90
63966;DHT22;50151;52.030;5.350;2023-06-26T10:40:14;23.50;99.90
63966;DHT22;50151;52.030;5.350;2023-06-26T10:42:43;23.50;99.90
63966;DHT22;50151;52.030;5.350;2023-06-26T10:45:14;23.20;99.90
63966;DHT22;50151;52.030;5.350;2023-06-26T10:47:46;23.80;99.90
63966;DHT22;50151;52.030;5.350;2023-06-26T10:50:24;23.50;99.90
63966;DHT22;50151;52.030;5.350;2023-06-26T10:55:50;24.40;99.90
63966;DHT22;50151;52.030;5.350;2023-06-26T11:03:45;24.00;99.90
63966;DHT22;50151;52.030;5.350;2023-06-26T11:06:17;23.90;99.90
63966;DHT22;50151;52.030;5.350;2023-06-26T11:08:46;24.30;99.90
63966;DHT22;50151;52.030;5.350;2023-06-26T11:11:16;24.30;99.90
63966;DHT22;50151;52.030;5.350;2023-06-26T11:13:45;24.10;99.90
63966;DHT22;50151;52.030;5.350;2023-06-26T11:16:13;24.30;99.90
63966;DHT22;50151;52.030;5.350;2023-06-26T11:18:41;24.00;99.90
63966;DHT22;50151;52.030;5.350;2023-06-26T11:21:12;24.30;99.90
63966;DHT22;50151;52.030;5.350;2023-06-26T11:23:48;24.70;99.90
63966;DHT22;50151;52.030;5.350;2023-06-26T11:26:20;25.00;99.90
63966;DHT22;50151;52.030;5.350;2023-06-26T11:28:57;24.70;99.90
63966;DHT22;50151;52.030;5.350;2023-06-26T11:33:52;24.30;99.90
63966;DHT22;50151;52.030;5.350;2023-06-26T11:36:23;24.60;99.90
63966;DHT22;50151;52.030;5.350;2023-06-26T11:38:59;24.10;99.90
63966;DHT22;50151;52.030;5.350;2023-06-26T11:41:28;24.20;99.90
63966;DHT22;50151;52.030;5.350;2023-06-26T11:43:55;24.70;99.90
63966;DHT22;50151;52.030;5.350;2023-06-26T11:46:22;24.20;99.90
63966;DHT22;50151;52.030;5.350;2023-06-26T11:48:49;24.40;99.90
63966;DHT22;50151;52.030;5.350;2023-06-26T11:51:16;24.50;99.90
63966;DHT22;50151;52.030;5.350;2023-06-26T11:53:45;24.50;99.90
63966;DHT22;50151;52.030;5.350;2023-06-26T11:56:14;24.80;99.90
63966;DHT22;50151;52.030;5.350;2023-06-26T11:59:07;24.40;99.90
63966;DHT22;50151;52.030;5.350;2023-06-26T12:01:43;24.70;99.90
63966;DHT22;50151;52.030;5.350;2023-06-26T12:04:15;24.40;99.90
63966;DHT22;50151;52.030;5.350;2023-06-26T12:06:46;24.30;99.90
63966;DHT22;50151;52.030;5.350;2023-06-26T12:09:13;24.50;99.90
63966;DHT22;50151;52.030;5.350;2023-06-26T12:11:41;24.80;99.90
63966;DHT22;50151;52.030;5.350;2023-06-26T12:14:09;24.90;99.90
63966;DHT22;50151;52.030;5.350;2023-06-26T12:16:36;24.90;99.90
63966;DHT22;50151;52.030;5.350;2023-06-26T12:19:05;24.60;99.90
63966;DHT22;50151;52.030;5.350;2023-06-26T12:21:44;25.30;99.90
63966;DHT22;50151;52.030;5.350;2023-06-26T12:24:17;25.10;99.90
63966;DHT22;50151;52.030;5.350;2023-06-26T12:26:45;25.10;99.90
63966;DHT22;50151;52.030;5.350;2023-06-26T12:29:14;24.60;99.90
63966;DHT22;50151;52.030;5.350;2023-06-26T12:31:42;24.20;99.90
63966;DHT22;50151;52.030;5.350;2023-06-26T12:34:10;24.70;99.90
63966;DHT22;50151;52.030;5.350;2023-06-26T12:36:45;24.80;99.90
63966;DHT22;50151;52.030;5.350;2023-06-26T12:39:14;24.50;99.90
63966;DHT22;50151;52.030;5.350;2023-06-26T12:41:55;24.30;99.90
63966;DHT22;50151;52.030;5.350;2023-06-26T12:44:27;23.80;99.90
63966;DHT22;50151;52.030;5.350;2023-06-26T12:46:58;24.20;99.90
63966;DHT22;50151;52.030;5.350;2023-06-26T12:52:06;24.90;99.90
63966;DHT22;50151;52.030;5.350;2023-06-26T12:54:34;24.80;99.90
63966;DHT22;50151;52.030;5.350;2023-06-26T12:57:01;24.60;99.90
63966;DHT22;50151;52.030;5.350;2023-06-26T12:59:28;25.10;99.90
63966;DHT22;50151;52.030;5.350;2023-06-26T13:01:54;25.10;99.90
63966;DHT22;50151;52.030;5.350;2023-06-26T13:04:21;25.00;99.90
63966;DHT22;50151;52.030;5.350;2023-06-26T13:06:48;25.40;99.90
63966;DHT22;50151;52.030;5.350;2023-06-26T13:09:15;25.50;99.90
63966;DHT22;50151;52.030;5.350;2023-06-26T13:11:42;25.40;99.90
63966;DHT22;50151;52.030;5.350;2023-06-26T13:14:09;25.80;99.90
63966;DHT22;50151;52.030;5.350;2023-06-26T13:16:38;25.10;99.90
63966;DHT22;50151;52.030;5.350;2023-06-26T13:19:05;24.90;99.90
63966;DHT22;50151;52.030;5.350;2023-06-26T13:21:32;25.30;99.90
63966;DHT22;50151;52.030;5.350;2023-06-26T13:23:59;25.80;99.90
63966;DHT22;50151;52.030;5.350;2023-06-26T13:26:26;25.60;99.90
63966;DHT22;50151;52.030;5.350;2023-06-26T13:29:03;25.60;99.90
63966;DHT22;50151;52.030;5.350;2023-06-26T13:31:30;24.80;99.90
63966;DHT22;50151;52.030;5.350;2023-06-26T13:33:58;25.40;99.90
63966;DHT22;50151;52.030;5.350;2023-06-26T13:36:25;26.10;99.90
63966;DHT22;50151;52.030;5.350;2023-06-26T13:38:52;26.50;99.90
63966;DHT22;50151;52.030;5.350;2023-06-26T13:41:23;26.00;99.90
63966;DHT22;50151;52.030;5.350;2023-06-26T13:43:51;24.10;99.90
63966;DHT22;50151;52.030;5.350;2023-06-26T13:46:19;25.10;99.90
63966;DHT22;50151;52.030;5.350;2023-06-26T13:48:46;24.90;99.90
63966;DHT22;50151;52.030;5.350;2023-06-26T13:51:13;25.30;99.90
63966;DHT22;50151;52.030;5.350;2023-06-26T13:53:46;24.70;99.90
63966;DHT22;50151;52.030;5.350;2023-06-26T13:56:13;24.90;99.90
63966;DHT22;50151;52.030;5.350;2023-06-26T13:58:39;25.40;99.90
63966;DHT22;50151;52.030;5.350;2023-06-26T14:01:07;25.00;99.90
63966;DHT22;50151;52.030;5.350;2023-06-26T14:03:33;24.40;99.90
63966;DHT22;50151;52.030;5.350;2023-06-26T14:06:00;24.20;99.90
63966;DHT22;50151;52.030;5.350;2023-06-26T14:08:28;25.20;99.90
63966;DHT22;50151;52.030;5.350;2023-06-26T14:10:54;24.80;99.90
63966;DHT22;50151;52.030;5.350;2023-06-26T14:13:21;24.00;99.90
63966;DHT22;50151;52.030;5.350;2023-06-26T14:15:50;23.90;99.90
63966;DHT22;50151;52.030;5.350;2023-06-26T14:18:20;24.60;99.90
63966;DHT22;50151;52.030;5.350;2023-06-26T14:20:51;25.10;99.90
63966;DHT22;50151;52.030;5.350;2023-06-26T14:23:18;23.90;99.90
63966;DHT22;50151;52.030;5.350;2023-06-26T14:25:45;24.60;99.90
63966;DHT22;50151;52.030;5.350;2023-06-26T14:28:15;24.70;99.90
63966;DHT22;50151;52.030;5.350;2023-06-26T14:30:43;25.20;99.90
63966;DHT22;50151;52.030;5.350;2023-06-26T14:33:10;25.40;99.90
63966;DHT22;50151;52.030;5.350;2023-06-26T14:35:37;25.30;99.90
63966;DHT22;50151;52.030;5.350;2023-06-26T14:38:04;25.70;99.90
63966;DHT22;50151;52.030;5.350;2023-06-26T14:40:33;25.70;99.90
63966;DHT22;50151;52.030;5.350;2023-06-26T14:43:00;25.30;99.90
63966;DHT22;50151;52.030;5.350;2023-06-26T14:45:28;25.80;99.90
63966;DHT22;50151;52.030;5.350;2023-06-26T14:47:55;25.30;99.90
63966;DHT22;50151;52.030;5.350;2023-06-26T14:50:22;25.40;99.90
63966;DHT22;50151;52.030;5.350;2023-06-26T14:52:49;24.40;99.90
63966;DHT22;50151;52.030;5.350;2023-06-26T14:55:16;24.50;99.90
63966;DHT22;50151;52.030;5.350;2023-06-26T14:57:43;24.70;99.90
63966;DHT22;50151;52.030;5.350;2023-06-26T15:00:11;25.20;99.90
63966;DHT22;50151;52.030;5.350;2023-06-26T15:02:38;24.90;99.90
63966;DHT22;50151;52.030;5.350;2023-06-26T15:05:05;25.10;99.90
63966;DHT22;50151;52.030;5.350;2023-06-26T15:07:32;24.90;99.90
63966;DHT22;50151;52.030;5.350;2023-06-26T15:09:59;24.70;99.90
63966;DHT22;50151;52.030;5.350;2023-06-26T15:12:26;25.20;99.90
63966;DHT22;50151;52.030;5.350;2023-06-26T15:14:53;25.40;99.90
63966;DHT22;50151;52.030;5.350;2023-06-26T15:17:20;24.80;99.90
63966;DHT22;50151;52.030;5.350;2023-06-26T15:19:47;24.30;99.90
63966;DHT22;50151;52.030;5.350;2023-06-26T15:22:17;24.30;99.90
63966;DHT22;50151;52.030;5.350;2023-06-26T15:24:44;24.50;99.90
63966;DHT22;50151;52.030;5.350;2023-06-26T15:27:11;24.70;99.90
63966;DHT22;50151;52.030;5.350;2023-06-26T15:29:39;24.50;99.90
63966;DHT22;50151;52.030;5.350;2023-06-26T15:32:06;24.60;99.90
63966;DHT22;50151;52.030;5.350;2023-06-26T15:34:33;24.30;99.90
63966;DHT22;50151;52.030;5.350;2023-06-26T15:37:00;24.30;99.90
63966;DHT22;50151;52.030;5.350;2023-06-26T15:39:27;24.30;99.90
63966;DHT22;50151;52.030;5.350;2023-06-26T15:41:54;24.10;99.90
63966;DHT22;50151;52.030;5.350;2023-06-26T15:44:20;24.10;99.90
63966;DHT22;50151;52.030;5.350;2023-06-26T15:46:47;23.80;99.90
63966;DHT22;50151;52.030;5.350;2023-06-26T15:49:14;23.90;99.90